createdAt,value
2023-05-17T00:02:08.713Z,96972.00
2023-05-17T00:04:36.220Z,96977.91
2023-05-17T00:07:03.780Z,96985.16
2023-05-17T00:09:31.277Z,96985.97
2023-05-17T00:11:58.624Z,96983.97
2023-05-17T00:14:26.009Z,96983.09
2023-05-17T00:16:53.390Z,96967.84
2023-05-17T00:19:21.421Z,96968.66
2023-05-17T00:21:48.958Z,96968.44
2023-05-17T00:24:16.225Z,96970.59
2023-05-17T00:26:43.615Z,96982.50
2023-05-17T00:29:10.944Z,96981.03
2023-05-17T00:31:38.141Z,96987.69
2023-05-17T00:34:05.378Z,96993.19
2023-05-17T00:36:32.642Z,96990.28
2023-05-17T00:39:01.636Z,96983.19
2023-05-17T00:41:28.963Z,96967.56
2023-05-17T00:43:56.336Z,96957.81
2023-05-17T00:46:23.649Z,96967.53
2023-05-17T00:48:51.231Z,96959.19
2023-05-17T00:51:21.142Z,96959.78
2023-05-17T00:53:48.762Z,96970.41
2023-05-17T00:56:16.452Z,96973.56
2023-05-17T00:58:43.898Z,96971.69
2023-05-17T01:01:11.599Z,96974.84
2023-05-17T01:03:39.020Z,96976.09
2023-05-17T01:06:07.154Z,96970.81
2023-05-17T01:08:35.993Z,96975.81
2023-05-17T01:11:32.505Z,96978.84
2023-05-17T01:14:28.034Z,96973.97
2023-05-17T01:17:02.657Z,96974.53
2023-05-17T01:20:21.589Z,96986.53
2023-05-17T01:23:21.054Z,96981.53
2023-05-17T01:26:30.201Z,96980.31
2023-05-17T01:28:59.973Z,96983.38
2023-05-17T01:31:27.642Z,96980.91
2023-05-17T01:33:59.731Z,96977.28
2023-05-17T01:36:28.582Z,96991.31
2023-05-17T01:38:55.875Z,96981.88
2023-05-17T01:41:30.886Z,96988.19
2023-05-17T01:44:38.139Z,96992.00
2023-05-17T01:47:42.520Z,97010.88
2023-05-17T01:50:13.130Z,97014.78
2023-05-17T01:52:55.309Z,97014.78
2023-05-17T01:55:54.329Z,97020.75
2023-05-17T01:58:26.750Z,97016.19
2023-05-17T02:00:58.485Z,97017.63
2023-05-17T02:03:29.528Z,97014.06
2023-05-17T02:05:56.994Z,97006.31
2023-05-17T02:08:24.395Z,97003.16
2023-05-17T02:10:52.040Z,97003.94
2023-05-17T02:13:19.330Z,97009.84
2023-05-17T02:15:47.052Z,97011.28
2023-05-17T02:18:14.705Z,97013.78
2023-05-17T02:20:42.214Z,97009.91
2023-05-17T02:23:09.654Z,97008.69
2023-05-17T02:25:36.930Z,97011.09
2023-05-17T02:28:04.422Z,97022.19
2023-05-17T02:30:31.940Z,97026.19
2023-05-17T02:32:59.673Z,97021.66
2023-05-17T02:35:27.300Z,97015.78
2023-05-17T02:37:54.786Z,97019.72
2023-05-17T02:40:22.272Z,97023.28
2023-05-17T02:42:49.517Z,97025.66
2023-05-17T02:45:16.968Z,97025.03
2023-05-17T02:47:44.387Z,97021.09
2023-05-17T02:50:11.779Z,97022.47
2023-05-17T02:52:39.530Z,97023.84
2023-05-17T02:55:08.037Z,97021.38
2023-05-17T02:57:35.467Z,97029.28
2023-05-17T03:00:03.788Z,97032.63
2023-05-17T03:02:31.477Z,97024.56
2023-05-17T03:04:59.407Z,97022.09
2023-05-17T03:07:27.173Z,97018.72
2023-05-17T03:09:55.275Z,97028.63
2023-05-17T03:12:23.734Z,97024.03
2023-05-17T03:14:51.278Z,97030.47
2023-05-17T03:17:20.624Z,97037.13
2023-05-17T03:19:48.059Z,97037.19
2023-05-17T03:22:15.490Z,97041.78
2023-05-17T03:24:42.824Z,97043.84
2023-05-17T03:27:10.809Z,97042.03
2023-05-17T03:29:38.396Z,97047.16
2023-05-17T03:32:06.729Z,97058.47
2023-05-17T03:34:34.098Z,97066.75
2023-05-17T03:37:01.936Z,97073.91
2023-05-17T03:39:29.293Z,97075.28
2023-05-17T03:41:56.831Z,97075.50
2023-05-17T03:44:25.132Z,97076.63
2023-05-17T03:46:53.830Z,97077.63
2023-05-17T03:49:22.507Z,97078.66
2023-05-17T03:51:50.925Z,97073.50
2023-05-17T03:54:19.000Z,97074.03
2023-05-17T03:56:49.069Z,97084.06
2023-05-17T03:59:17.327Z,97083.75
2023-05-17T04:01:45.626Z,97085.41
2023-05-17T04:04:14.584Z,97090.56
2023-05-17T04:06:42.167Z,97093.97
2023-05-17T04:09:11.218Z,97109.44
2023-05-17T04:11:41.158Z,97109.38
2023-05-17T04:14:08.693Z,97111.97
2023-05-17T04:16:36.738Z,97114.25
2023-05-17T04:19:04.961Z,97126.16
2023-05-17T04:21:32.525Z,97130.88
2023-05-17T04:23:59.802Z,97128.88
2023-05-17T04:26:27.751Z,97136.69
2023-05-17T04:28:55.080Z,97131.66
2023-05-17T04:31:23.807Z,97135.00
2023-05-17T04:33:51.726Z,97151.41
2023-05-17T04:36:19.152Z,97153.69
2023-05-17T04:38:46.646Z,97150.97
2023-05-17T04:41:18.031Z,97156.38
2023-05-17T04:43:45.410Z,97152.75
2023-05-17T04:46:20.667Z,97147.66
2023-05-17T04:48:48.345Z,97145.69
2023-05-17T04:51:15.908Z,97139.41
2023-05-17T04:53:43.303Z,97156.34
2023-05-17T04:56:15.655Z,97162.00
2023-05-17T04:58:43.648Z,97174.69
2023-05-17T05:01:12.110Z,97171.94
2023-05-17T05:03:40.439Z,97172.41
2023-05-17T05:06:09.558Z,97188.47
2023-05-17T05:08:37.715Z,97185.44
2023-05-17T05:11:07.684Z,97199.03
2023-05-17T05:13:35.113Z,97206.06
2023-05-17T05:16:02.562Z,97201.50
2023-05-17T05:18:29.979Z,97205.78
2023-05-17T05:20:57.874Z,97213.50
2023-05-17T05:23:25.820Z,97222.16
2023-05-17T05:25:53.311Z,97229.00
2023-05-17T05:28:20.885Z,97233.50
2023-05-17T05:30:49.036Z,97239.56
2023-05-17T05:33:16.546Z,97241.50
2023-05-17T05:35:44.183Z,97246.41
2023-05-17T05:38:11.860Z,97249.25
2023-05-17T05:40:40.042Z,97240.44
2023-05-17T05:43:07.409Z,97236.06
2023-05-17T05:45:34.672Z,97246.69
2023-05-17T05:48:05.716Z,97232.03
2023-05-17T05:50:35.338Z,97243.63
2023-05-17T05:53:18.132Z,97249.03
2023-05-17T05:55:51.343Z,97251.41
2023-05-17T05:58:19.428Z,97261.44
2023-05-17T06:00:47.790Z,97264.06
2023-05-17T06:03:15.677Z,97269.38
2023-05-17T06:05:43.278Z,97275.88
2023-05-17T06:08:10.791Z,97268.06
2023-05-17T06:10:37.991Z,97268.88
2023-05-17T06:13:05.433Z,97272.56
2023-05-17T06:15:32.926Z,97263.28
2023-05-17T06:18:00.537Z,97272.78
2023-05-17T06:20:28.176Z,97277.00
2023-05-17T06:22:55.772Z,97284.38
2023-05-17T06:25:23.317Z,97280.66
2023-05-17T06:27:50.826Z,97284.91
2023-05-17T06:30:18.175Z,97286.19
2023-05-17T06:32:45.451Z,97290.66
2023-05-17T06:35:12.747Z,97286.28
2023-05-17T06:37:39.947Z,97282.81
2023-05-17T06:40:16.120Z,97295.53
2023-05-17T06:42:44.638Z,97298.63
2023-05-17T06:45:13.242Z,97301.81
2023-05-17T06:47:41.369Z,97310.78
2023-05-17T06:50:09.429Z,97314.50
2023-05-17T06:52:37.183Z,97316.94
2023-05-17T06:55:08.744Z,97325.38
2023-05-17T06:57:37.195Z,97325.38
2023-05-17T07:00:11.116Z,97333.31
2023-05-17T07:02:38.686Z,97330.41
2023-05-17T07:05:07.241Z,97332.97
2023-05-17T07:07:35.295Z,97320.03
2023-05-17T07:10:02.818Z,97329.34
2023-05-17T07:12:30.199Z,97332.72
2023-05-17T07:14:57.484Z,97333.03
2023-05-17T07:17:24.861Z,97336.22
2023-05-17T07:19:52.494Z,97337.00
2023-05-17T07:22:20.275Z,97347.31
2023-05-17T07:24:48.055Z,97359.19
2023-05-17T07:27:17.920Z,97364.09
2023-05-17T07:29:45.386Z,97375.25
2023-05-17T07:32:12.901Z,97374.19
2023-05-17T07:34:40.393Z,97376.56
2023-05-17T07:37:07.642Z,97378.75
2023-05-17T07:39:35.014Z,97382.19
2023-05-17T07:42:04.529Z,97373.94
2023-05-17T07:44:32.753Z,97379.97
2023-05-17T07:47:00.317Z,97383.69
2023-05-17T07:49:27.967Z,97389.09
2023-05-17T07:51:55.740Z,97388.75
2023-05-17T07:54:25.150Z,97390.38
2023-05-17T07:56:55.086Z,97399.84
2023-05-17T07:59:23.351Z,97403.03
2023-05-17T08:01:51.277Z,97402.97
2023-05-17T08:04:21.496Z,97405.94
2023-05-17T08:06:50.223Z,97405.41
2023-05-17T08:09:17.860Z,97400.03
2023-05-17T08:11:48.759Z,97401.41
2023-05-17T08:14:17.795Z,97391.06
2023-05-17T08:16:46.893Z,97398.69
2023-05-17T08:19:15.123Z,97405.38
2023-05-17T08:21:44.783Z,97403.78
2023-05-17T08:24:12.873Z,97409.66
2023-05-17T08:26:40.995Z,97411.69
2023-05-17T08:29:08.231Z,97412.66
2023-05-17T08:31:35.715Z,97413.84
2023-05-17T08:34:03.507Z,97413.47
2023-05-17T08:36:31.090Z,97419.13
2023-05-17T08:38:58.711Z,97413.38
2023-05-17T08:41:26.056Z,97419.72
2023-05-17T08:43:54.298Z,97427.84
2023-05-17T08:46:23.820Z,97428.41
2023-05-17T08:48:52.856Z,97433.91
2023-05-17T08:51:20.891Z,97431.84
2023-05-17T08:53:50.698Z,97428.97
2023-05-17T08:56:20.858Z,97431.31
2023-05-17T08:58:57.146Z,97445.06
2023-05-17T09:01:27.189Z,97441.69
2023-05-17T09:03:56.034Z,97440.81
2023-05-17T09:06:24.396Z,97438.72
2023-05-17T09:08:54.911Z,97441.63
2023-05-17T09:11:30.367Z,97446.41
2023-05-17T09:14:05.998Z,97443.47
2023-05-17T09:16:36.352Z,97449.25
2023-05-17T09:19:06.444Z,97452.66
2023-05-17T09:21:34.530Z,97448.56
2023-05-17T09:24:07.152Z,97454.66
2023-05-17T09:26:43.008Z,97450.53
2023-05-17T09:29:12.660Z,97451.09
2023-05-17T09:31:41.601Z,97450.66
2023-05-17T09:34:09.761Z,97459.13
2023-05-17T09:36:38.801Z,97465.47
2023-05-17T09:39:12.293Z,97473.19
2023-05-17T09:41:51.208Z,97471.06
2023-05-17T09:44:18.463Z,97478.22
2023-05-17T09:46:48.443Z,97478.94
2023-05-17T09:49:17.532Z,97475.00
2023-05-17T09:51:48.696Z,97484.00
2023-05-17T09:54:17.891Z,97490.59
2023-05-17T09:56:53.142Z,97488.78
2023-05-17T09:59:21.019Z,97493.03
2023-05-17T10:01:50.504Z,97504.66
2023-05-17T10:04:23.310Z,97504.09
2023-05-17T10:06:53.252Z,97500.13
2023-05-17T10:09:23.069Z,97496.19
2023-05-17T10:11:56.688Z,97487.72
2023-05-17T10:14:36.220Z,97497.75
2023-05-17T10:17:04.302Z,97510.22
2023-05-17T10:19:32.566Z,97502.53
2023-05-17T10:22:11.601Z,97505.44
2023-05-17T10:24:52.353Z,97502.53
2023-05-17T10:27:20.971Z,97507.81
2023-05-17T10:29:50.706Z,97511.50
2023-05-17T10:32:23.597Z,97518.34
2023-05-17T10:35:02.069Z,97518.66
2023-05-17T10:37:34.763Z,97529.22
2023-05-17T10:40:02.393Z,97535.56
2023-05-17T10:42:32.388Z,97526.09
2023-05-17T10:45:01.779Z,97526.06
2023-05-17T10:47:33.604Z,97526.63
2023-05-17T10:50:04.791Z,97527.91
2023-05-17T10:52:32.307Z,97527.66
2023-05-17T10:55:00.810Z,97525.25
2023-05-17T10:57:50.554Z,97530.28
2023-05-17T11:00:31.362Z,97532.94
2023-05-17T11:03:22.789Z,97537.16
2023-05-17T11:06:24.403Z,97534.53
2023-05-17T11:09:32.392Z,97533.69
2023-05-17T11:12:09.321Z,97524.47
2023-05-17T11:14:45.757Z,97530.53
2023-05-17T11:17:21.388Z,97540.28
2023-05-17T11:19:55.157Z,97543.25
2023-05-17T11:22:27.701Z,97541.88
2023-05-17T11:24:57.833Z,97537.16
2023-05-17T11:27:28.891Z,97549.53
2023-05-17T11:29:57.610Z,97544.81
2023-05-17T11:32:32.998Z,97544.03
2023-05-17T11:35:01.962Z,97549.31
2023-05-17T11:37:31.389Z,97553.53
2023-05-17T11:40:08.413Z,97561.19
2023-05-17T11:42:37.494Z,97557.25
2023-05-17T11:45:06.456Z,97561.19
2023-05-17T11:47:38.853Z,97565.69
2023-05-17T11:50:07.998Z,97566.72
2023-05-17T11:52:35.531Z,97568.84
2023-05-17T11:55:04.124Z,97569.63
2023-05-17T11:57:32.773Z,97572.56
2023-05-17T12:00:05.716Z,97578.63
2023-05-17T12:02:42.320Z,97583.06
2023-05-17T12:05:09.840Z,97586.03
2023-05-17T12:07:37.651Z,97591.59
2023-05-17T12:10:06.814Z,97589.47
2023-05-17T12:12:34.503Z,97606.13
2023-05-17T12:15:02.164Z,97612.75
2023-05-17T12:17:38.683Z,97612.50
2023-05-17T12:20:10.472Z,97611.72
2023-05-17T12:22:57.339Z,97617.09
2023-05-17T12:25:27.623Z,97606.59
2023-05-17T12:28:22.351Z,97614.03
2023-05-17T12:30:58.585Z,97623.78
2023-05-17T12:33:26.877Z,97620.69
2023-05-17T12:35:54.660Z,97623.56
2023-05-17T12:38:22.288Z,97625.19
2023-05-17T12:40:50.075Z,97621.72
2023-05-17T12:43:18.777Z,97625.38
2023-05-17T12:45:48.137Z,97624.84
2023-05-17T12:48:15.705Z,97623.19
2023-05-17T12:50:46.511Z,97627.94
2023-05-17T12:53:13.936Z,97626.38
2023-05-17T12:55:41.378Z,97632.78
2023-05-17T12:58:08.711Z,97632.78
2023-05-17T13:00:36.218Z,97641.53
2023-05-17T13:03:11.052Z,97633.88
2023-05-17T13:05:39.901Z,97633.88
2023-05-17T13:08:21.531Z,97631.47
2023-05-17T13:10:48.803Z,97627.22
2023-05-17T13:13:20.690Z,97629.53
2023-05-17T13:15:48.112Z,97646.78
2023-05-17T13:18:16.511Z,97647.91
2023-05-17T13:20:44.227Z,97651.09
2023-05-17T13:23:11.432Z,97654.22
2023-05-17T13:25:38.814Z,97661.66
2023-05-17T13:28:06.225Z,97665.63
2023-05-17T13:30:33.537Z,97671.69
2023-05-17T13:33:01.041Z,97669.88
2023-05-17T13:35:28.357Z,97670.66
2023-05-17T13:37:58.044Z,97665.31
2023-05-17T13:40:25.554Z,97664.75
2023-05-17T13:42:52.831Z,97674.81
2023-05-17T13:45:20.126Z,97673.50
2023-05-17T13:47:47.696Z,97670.03
2023-05-17T13:50:17.346Z,97671.44
2023-05-17T13:52:44.767Z,97673.50
2023-05-17T13:55:12.327Z,97677.22
2023-05-17T13:57:39.717Z,97684.13
2023-05-17T14:00:08.278Z,97677.84
2023-05-17T14:02:36.866Z,97676.19
2023-05-17T14:05:07.327Z,97673.56
2023-05-17T14:07:34.779Z,97674.97
2023-05-17T14:10:02.363Z,97686.88
2023-05-17T14:12:29.956Z,97691.38
2023-05-17T14:14:57.427Z,97696.13
2023-05-17T14:17:24.921Z,97700.09
2023-05-17T14:19:52.795Z,97691.91
2023-05-17T14:22:20.183Z,97700.34
2023-05-17T14:24:47.629Z,97707.41
2023-05-17T14:27:15.378Z,97705.84
2023-05-17T14:29:42.704Z,97696.84
2023-05-17T14:32:13.000Z,97699.00
2023-05-17T14:34:40.832Z,97696.91
2023-05-17T14:37:08.664Z,97691.09
2023-05-17T14:39:36.299Z,97693.22
2023-05-17T14:42:04.265Z,97695.06
2023-05-17T14:44:31.701Z,97699.28
2023-05-17T14:46:59.135Z,97700.09
2023-05-17T14:49:26.492Z,97696.66
2023-05-17T14:51:53.812Z,97695.88
2023-05-17T14:54:22.023Z,97698.53
2023-05-17T14:56:49.327Z,97699.31
2023-05-17T14:59:16.731Z,97695.63
2023-05-17T15:01:43.935Z,97700.13
2023-05-17T15:04:11.564Z,97703.81
2023-05-17T15:06:38.995Z,97715.16
2023-05-17T15:09:06.448Z,97720.47
2023-05-17T15:11:33.942Z,97716.22
2023-05-17T15:14:02.487Z,97720.72
2023-05-17T15:16:30.094Z,97728.13
2023-05-17T15:18:58.106Z,97724.13
2023-05-17T15:21:26.167Z,97724.91
2023-05-17T15:23:53.538Z,97718.78
2023-05-17T15:26:21.590Z,97722.44
2023-05-17T15:28:52.227Z,97729.66
2023-05-17T15:31:19.624Z,97729.19
2023-05-17T15:33:47.222Z,97731.56
2023-05-17T15:36:16.436Z,97730.50
2023-05-17T15:38:45.042Z,97729.69
2023-05-17T15:41:16.101Z,97733.94
2023-05-17T15:43:44.282Z,97731.28
2023-05-17T15:46:12.929Z,97730.75
2023-05-17T15:48:40.406Z,97730.25
2023-05-17T15:51:07.820Z,97728.38
2023-05-17T15:53:35.153Z,97725.38
2023-05-17T15:56:02.670Z,97726.44
2023-05-17T15:58:33.526Z,97726.53
2023-05-17T16:01:05.987Z,97729.69
2023-05-17T16:03:34.210Z,97736.31
2023-05-17T16:06:01.769Z,97729.94
2023-05-17T16:08:29.370Z,97737.38
2023-05-17T16:10:56.948Z,97736.84
2023-05-17T16:13:24.422Z,97736.88
2023-05-17T16:15:51.946Z,97741.63
2023-05-17T16:18:19.524Z,97742.84
2023-05-17T16:20:46.899Z,97744.47
2023-05-17T16:23:14.293Z,97746.63
2023-05-17T16:25:42.265Z,97750.34
2023-05-17T16:28:09.525Z,97745.06
2023-05-17T16:30:37.589Z,97746.63
2023-05-17T16:33:08.266Z,97746.88
2023-05-17T16:35:36.010Z,97747.38
2023-05-17T16:38:03.341Z,97745.56
2023-05-17T16:40:31.220Z,97755.25
2023-05-17T16:42:58.791Z,97753.47
2023-05-17T16:45:26.100Z,97756.13
2023-05-17T16:47:53.502Z,97759.28
2023-05-17T16:50:20.984Z,97755.38
2023-05-17T16:52:48.397Z,97759.59
2023-05-17T16:55:15.905Z,97767.28
2023-05-17T16:57:43.873Z,97766.72
2023-05-17T17:00:12.200Z,97774.13
2023-05-17T17:02:39.556Z,97774.13
2023-05-17T17:05:07.795Z,97771.69
2023-05-17T17:07:35.130Z,97788.38
2023-05-17T17:10:02.688Z,97787.78
2023-05-17T17:12:30.026Z,97788.13
2023-05-17T17:14:57.577Z,97789.44
2023-05-17T17:17:24.921Z,97785.50
2023-05-17T17:19:52.672Z,97792.91
2023-05-17T17:22:20.260Z,97795.31
2023-05-17T17:24:47.674Z,97794.00
2023-05-17T17:27:15.047Z,97800.06
2023-05-17T17:29:42.349Z,97797.63
2023-05-17T17:32:09.792Z,97793.28
2023-05-17T17:34:37.270Z,97787.09
2023-05-17T17:37:04.766Z,97797.63
2023-05-17T17:39:32.286Z,97805.34
2023-05-17T17:41:59.826Z,97798.44
2023-05-17T17:44:27.589Z,97797.94
2023-05-17T17:46:55.487Z,97807.94
2023-05-17T17:49:23.008Z,97805.00
2023-05-17T17:51:50.283Z,97794.84
2023-05-17T17:54:17.769Z,97805.72
2023-05-17T17:56:45.539Z,97806.81
2023-05-17T17:59:13.462Z,97809.81
2023-05-17T18:01:41.022Z,97806.88
2023-05-17T18:04:09.653Z,97814.28
2023-05-17T18:06:37.266Z,97812.72
2023-05-17T18:09:05.938Z,97809.03
2023-05-17T18:11:33.401Z,97803.16
2023-05-17T18:14:02.482Z,97802.16
2023-05-17T18:16:30.794Z,97802.06
2023-05-17T18:18:58.187Z,97803.63
2023-05-17T18:21:25.624Z,97803.47
2023-05-17T18:23:53.111Z,97799.75
2023-05-17T18:26:21.364Z,97803.63
2023-05-17T18:28:48.839Z,97810.09
2023-05-17T18:31:16.377Z,97815.38
2023-05-17T18:33:43.602Z,97818.06
2023-05-17T18:36:10.942Z,97822.00
2023-05-17T18:38:38.424Z,97827.31
2023-05-17T18:41:05.872Z,97831.50
2023-05-17T18:43:33.655Z,97835.25
2023-05-17T18:46:01.161Z,97835.47
2023-05-17T18:48:28.625Z,97830.69
2023-05-17T18:50:57.627Z,97838.13
2023-05-17T18:53:25.232Z,97842.88
2023-05-17T18:55:52.627Z,97841.56
2023-05-17T18:58:20.277Z,97851.91
2023-05-17T19:00:48.719Z,97856.94
2023-05-17T19:03:16.167Z,97853.72
2023-05-17T19:05:43.617Z,97864.59
2023-05-17T19:08:11.004Z,97875.25
2023-05-17T19:10:38.453Z,97870.72
2023-05-17T19:13:08.702Z,97874.94
2023-05-17T19:15:36.353Z,97875.72
2023-05-17T19:18:04.283Z,97868.88
2023-05-17T19:20:32.011Z,97867.78
2023-05-17T19:23:01.062Z,97877.28
2023-05-17T19:25:28.795Z,97868.03
2023-05-17T19:27:56.420Z,97869.88
2023-05-17T19:30:23.904Z,97869.84
2023-05-17T19:32:51.411Z,97873.06
2023-05-17T19:35:19.368Z,97872.53
2023-05-17T19:37:47.805Z,97876.53
2023-05-17T19:40:18.738Z,97873.13
2023-05-17T19:42:46.926Z,97882.38
2023-05-17T19:45:14.759Z,97889.25
2023-05-17T19:47:42.801Z,97884.44
2023-05-17T19:50:11.763Z,97885.78
2023-05-17T19:52:39.486Z,97885.53
2023-05-17T19:55:07.102Z,97891.13
2023-05-17T19:57:34.671Z,97896.84
2023-05-17T20:00:02.250Z,97900.06
2023-05-17T20:02:31.804Z,97902.66
2023-05-17T20:05:02.241Z,97903.16
2023-05-17T20:07:33.492Z,97900.31
2023-05-17T20:10:00.850Z,97901.94
2023-05-17T20:12:28.335Z,97899.00
2023-05-17T20:14:55.725Z,97897.44
2023-05-17T20:17:23.148Z,97894.75
2023-05-17T20:19:51.462Z,97886.31
2023-05-17T20:22:20.935Z,97896.06
2023-05-17T20:24:48.345Z,97895.81
2023-05-17T20:27:15.835Z,97897.34
2023-05-17T20:29:43.425Z,97896.34
2023-05-17T20:32:10.846Z,97900.56
2023-05-17T20:34:38.323Z,97896.03
2023-05-17T20:37:06.113Z,97897.09
2023-05-17T20:39:33.344Z,97894.72
2023-05-17T20:42:01.480Z,97905.25
2023-05-17T20:44:28.773Z,97912.84
2023-05-17T20:46:57.011Z,97913.38
2023-05-17T20:49:24.191Z,97912.13
2023-05-17T20:51:51.505Z,97904.72
2023-05-17T20:54:18.900Z,97920.59
2023-05-17T20:56:46.406Z,97915.84
2023-05-17T20:59:13.748Z,97912.13
2023-05-17T21:01:41.584Z,97909.47
2023-05-17T21:04:09.243Z,97914.78
2023-05-17T21:06:36.690Z,97913.09
2023-05-17T21:09:04.069Z,97905.47
2023-05-17T21:11:31.410Z,97905.53
2023-05-17T21:13:59.819Z,97918.50
2023-05-17T21:16:27.425Z,97910.75
2023-05-17T21:18:55.145Z,97915.28
2023-05-17T21:21:22.721Z,97910.19
2023-05-17T21:23:50.064Z,97909.34
2023-05-17T21:26:17.424Z,97910.34
2023-05-17T21:28:44.682Z,97911.78
2023-05-17T21:31:12.113Z,97912.84
2023-05-17T21:33:39.556Z,97913.84
2023-05-17T21:36:07.116Z,97897.91
2023-05-17T21:38:34.481Z,97905.44
2023-05-17T21:41:01.901Z,97912.38
2023-05-17T21:43:29.117Z,97914.19
2023-05-17T21:45:56.740Z,97916.84
2023-05-17T21:48:24.624Z,97911.50
2023-05-17T21:50:52.072Z,97915.81
2023-05-17T21:53:19.304Z,97913.38
2023-05-17T21:58:20.675Z,97917.66
2023-05-17T22:00:48.064Z,97921.22
2023-05-17T22:03:15.852Z,97920.50
2023-05-17T22:05:43.141Z,97917.66
2023-05-17T22:08:10.484Z,97918.81
2023-05-17T22:10:40.326Z,97911.66
2023-05-17T22:13:12.314Z,97915.56
2023-05-17T22:15:41.687Z,97914.28
2023-05-17T22:18:12.512Z,97915.19
2023-05-17T22:20:40.075Z,97918.09
2023-05-17T22:23:07.580Z,97914.13
2023-05-17T22:25:35.544Z,97922.03
2023-05-17T22:28:03.115Z,97919.13
2023-05-17T22:30:30.584Z,97913.84
2023-05-17T22:32:58.217Z,97907.09
2023-05-17T22:35:25.735Z,97913.94
2023-05-17T22:37:53.594Z,97915.31
2023-05-17T22:40:21.387Z,97909.22
2023-05-17T22:42:50.240Z,97911.63
2023-05-17T22:45:18.344Z,97911.63
2023-05-17T22:47:47.166Z,97912.69
2023-05-17T22:50:15.907Z,97910.31
2023-05-17T22:52:43.578Z,97900.94
2023-05-17T22:55:11.406Z,97903.38
2023-05-17T22:57:39.206Z,97899.47
2023-05-17T23:00:09.317Z,97898.38
2023-05-17T23:02:36.738Z,97898.63
2023-05-17T23:05:04.939Z,97898.94
2023-05-17T23:07:38.780Z,97895.72
2023-05-17T23:10:11.706Z,97894.19
2023-05-17T23:12:39.293Z,97892.63
2023-05-17T23:15:08.043Z,97897.88
2023-05-17T23:17:35.601Z,97897.28
2023-05-17T23:20:07.586Z,97896.13
2023-05-17T23:22:35.029Z,97896.78
2023-05-17T23:25:06.165Z,97897.59
2023-05-17T23:27:35.470Z,97895.72
2023-05-17T23:30:04.564Z,97900.16
2023-05-17T23:32:32.851Z,97890.63
2023-05-17T23:35:04.316Z,97897.50
2023-05-17T23:37:33.652Z,97900.94
2023-05-17T23:40:01.194Z,97898.63
2023-05-17T23:42:31.980Z,97898.63
2023-05-17T23:45:00.780Z,97899.72
2023-05-17T23:47:28.416Z,97902.81
2023-05-17T23:49:56.692Z,97903.16
2023-05-17T23:52:24.572Z,97898.34
2023-05-17T23:54:51.984Z,97905.81
2023-05-17T23:57:19.444Z,97903.06
2023-05-17T23:59:46.759Z,97907.75
